Time;durP1;ratioP1;P1;durP2;ratioP2;P2;SDS_P1;SDS_P2;PMS_P1;PMS_P2;Temp;Humidity;BMP_temperature;BMP_pressure;BME280_temperature;BME280_humidity;BME280_pressure;Samples;Min_cycle;Max_cycle;Signal;HPM_P1;HPM_P2
2023/02/25 00:00:16;;;;;;;7.87;3.93;;;4.20;99.90;;;;;;5037186;28;20535;-65
2023/02/25 00:06:32;;;;;;;9.50;3.40;;;4.30;99.90;;;;;;5039707;28;20413;-65
2023/02/25 00:08:58;;;;;;;5.37;3.73;;;4.30;99.90;;;;;;5009341;28;20445;-64
2023/02/25 00:11:25;;;;;;;8.23;3.50;;;4.10;99.90;;;;;;5023651;28;20438;-63
2023/02/25 00:13:51;;;;;;;6.23;2.80;;;4.00;99.90;;;;;;5020950;28;20184;-64
2023/02/25 00:16:17;;;;;;;7.80;2.83;;;4.10;99.90;;;;;;5023038;28;20453;-66
2023/02/25 00:18:45;;;;;;;6.30;2.60;;;4.10;99.90;;;;;;5023450;28;24221;-66
2023/02/25 00:21:15;;;;;;;7.23;4.17;;;4.10;99.90;;;;;;5022521;28;20430;-65
2023/02/25 00:23:48;;;;;;;5.20;2.13;;;4.00;99.90;;;;;;5030230;28;20427;-64
2023/02/25 00:26:15;;;;;;;1.73;1.30;;;3.70;99.90;;;;;;5021475;28;20481;-64
2023/02/25 00:28:41;;;;;;;1.67;1.57;;;3.50;99.90;;;;;;5028448;28;20429;-65
2023/02/25 00:31:14;;;;;;;3.00;1.43;;;3.20;99.90;;;;;;5039115;28;20428;-64
2023/02/25 00:33:41;;;;;;;1.57;0.90;;;2.80;99.90;;;;;;5035134;28;20422;-63
2023/02/25 00:36:11;;;;;;;3.03;1.53;;;2.70;99.90;;;;;;5033727;28;20469;-65
2023/02/25 00:38:37;;;;;;;1.90;1.00;;;2.60;99.90;;;;;;5032954;28;20476;-65
2023/02/25 00:41:10;;;;;;;1.30;1.20;;;2.50;99.90;;;;;;5040148;28;20458;-65
2023/02/25 00:43:37;;;;;;;2.00;1.20;;;2.40;99.90;;;;;;5025956;28;20537;-64
2023/02/25 00:46:03;;;;;;;1.20;1.10;;;2.30;99.90;;;;;;5027466;28;20482;-64
2023/02/25 00:48:28;;;;;;;4.30;1.10;;;2.30;99.90;;;;;;5021482;28;20496;-63
2023/02/25 00:50:54;;;;;;;1.00;1.00;;;2.20;99.90;;;;;;5018059;28;20199;-63
2023/02/25 00:53:19;;;;;;;6.53;1.30;;;2.20;99.90;;;;;;5022493;28;20191;-65
2023/02/25 00:55:45;;;;;;;1.17;1.07;;;2.20;99.90;;;;;;5018892;28;20654;-64
2023/02/25 00:58:11;;;;;;;0.90;0.90;;;2.10;99.90;;;;;;5016957;28;20270;-66
2023/02/25 01:00:36;;;;;;;1.87;1.30;;;2.20;99.90;;;;;;5025904;28;20203;-62
2023/02/25 01:03:02;;;;;;;2.10;1.77;;;2.20;99.90;;;;;;5038110;28;20171;-64
2023/02/25 01:05:27;;;;;;;5.47;2.03;;;2.20;99.90;;;;;;5036675;28;20265;-65
2023/02/25 01:07:53;;;;;;;2.17;1.50;;;2.30;99.90;;;;;;5035776;28;20190;-65
2023/02/25 01:10:18;;;;;;;6.93;1.70;;;2.30;99.90;;;;;;5028716;28;20232;-64
2023/02/25 01:12:44;;;;;;;1.47;1.37;;;2.30;99.90;;;;;;5017132;28;20743;-66
2023/02/25 01:15:11;;;;;;;3.90;1.33;;;2.40;99.90;;;;;;5040487;28;20182;-66
2023/02/25 01:17:36;;;;;;;1.90;1.30;;;2.40;99.90;;;;;;5040765;28;20462;-66
2023/02/25 01:20:05;;;;;;;4.17;1.70;;;2.40;99.90;;;;;;5038099;28;20465;-65
2023/02/25 01:22:30;;;;;;;2.30;1.60;;;2.50;99.90;;;;;;5040964;28;20189;-65
2023/02/25 01:24:56;;;;;;;6.33;1.60;;;2.60;99.90;;;;;;5040125;28;20519;-66
2023/02/25 01:27:22;;;;;;;1.10;1.00;;;2.60;99.90;;;;;;5041678;28;20208;-66
2023/02/25 01:29:47;;;;;;;2.27;1.50;;;2.60;99.90;;;;;;5023333;28;20184;-65
2023/02/25 01:32:14;;;;;;;4.83;1.60;;;2.70;99.90;;;;;;5043690;28;20183;-65
2023/02/25 01:34:40;;;;;;;1.57;1.47;;;2.70;99.90;;;;;;5032182;28;20179;-66
2023/02/25 01:37:05;;;;;;;16.57;2.53;;;2.80;99.90;;;;;;5040013;28;20503;-64
2023/02/25 01:39:31;;;;;;;3.30;2.23;;;2.80;99.90;;;;;;5041157;28;20380;-65
2023/02/25 01:42:03;;;;;;;2.20;1.50;;;2.80;99.90;;;;;;5039803;28;20176;-65
2023/02/25 01:44:32;;;;;;;3.93;2.80;;;2.90;99.90;;;;;;5042384;28;20433;-65
2023/02/25 01:46:58;;;;;;;7.20;2.07;;;2.90;99.90;;;;;;5039833;28;20498;-65
2023/02/25 01:49:29;;;;;;;5.53;2.03;;;2.90;99.90;;;;;;5030193;28;20414;-65
2023/02/25 01:52:10;;;;;;;3.20;3.00;;;3.00;99.90;;;;;;5043348;28;20927;-64
2023/02/25 01:54:37;;;;;;;5.93;2.80;;;3.00;99.90;;;;;;5039008;28;20550;-65
2023/02/25 01:57:06;;;;;;;2.40;2.13;;;3.00;99.90;;;;;;5032817;28;20920;-64
2023/02/25 01:59:34;;;;;;;2.33;1.73;;;3.00;99.90;;;;;;5030292;28;20615;-64
2023/02/25 02:02:00;;;;;;;2.57;2.00;;;3.00;99.90;;;;;;5043898;28;20414;-67
2023/02/25 02:04:27;;;;;;;3.33;2.90;;;3.10;99.90;;;;;;5029521;28;20430;-66
2023/02/25 02:06:54;;;;;;;1.73;1.63;;;3.10;99.90;;;;;;5029420;28;20450;-64
2023/02/25 02:09:27;;;;;;;5.40;3.00;;;3.20;99.90;;;;;;5043398;28;20552;-65
2023/02/25 02:11:56;;;;;;;4.53;2.43;;;3.20;99.90;;;;;;5026561;28;20445;-63
2023/02/25 02:14:33;;;;;;;4.53;2.20;;;3.20;99.90;;;;;;5037573;28;20858;-64
2023/02/25 02:17:15;;;;;;;5.53;1.80;;;3.30;99.90;;;;;;5042590;28;20446;-65
2023/02/25 02:19:48;;;;;;;2.60;2.07;;;3.30;99.90;;;;;;5044289;28;20457;-64
2023/02/25 02:22:28;;;;;;;6.53;1.87;;;3.30;99.90;;;;;;5037914;28;20417;-65
2023/02/25 02:25:05;;;;;;;2.30;2.00;;;3.30;99.90;;;;;;5039885;28;20411;-65
2023/02/25 02:28:28;;;;;;;2.83;1.60;;;3.30;99.90;;;;;;5044725;28;20412;-64
2023/02/25 02:31:27;;;;;;;4.90;2.23;;;3.40;99.90;;;;;;5002535;28;20889;-65
2023/02/25 02:34:20;;;;;;;7.83;2.97;;;3.30;99.90;;;;;;5000380;28;20747;-65
2023/02/25 02:36:55;;;;;;;3.10;2.20;;;3.30;99.90;;;;;;5036953;28;20462;-64
2023/02/25 02:39:45;;;;;;;3.70;2.03;;;3.40;99.90;;;;;;5031924;28;20599;-64
2023/02/25 02:42:15;;;;;;;7.97;2.20;;;3.40;99.90;;;;;;5032179;28;20891;-64
2023/02/25 02:44:59;;;;;;;2.70;2.00;;;3.40;99.90;;;;;;5016612;28;20435;-64
2023/02/25 02:47:35;;;;;;;3.00;2.30;;;3.40;99.90;;;;;;5027462;28;20473;-63
2023/02/25 02:50:08;;;;;;;1.97;1.80;;;3.40;99.90;;;;;;5021077;28;20430;-64
2023/02/25 02:52:39;;;;;;;3.70;1.70;;;3.40;99.90;;;;;;5003305;28;20529;-66
2023/02/25 02:55:34;;;;;;;2.47;2.20;;;3.40;99.90;;;;;;5033293;28;20422;-63
2023/02/25 02:58:08;;;;;;;4.43;2.73;;;3.40;99.90;;;;;;5039216;28;20441;-63
2023/02/25 03:00:39;;;;;;;5.97;3.20;;;3.40;99.90;;;;;;5031560;28;20449;-65
2023/02/25 03:03:35;;;;;;;4.37;3.33;;;3.30;99.90;;;;;;5040091;28;20833;-64
2023/02/25 03:06:06;;;;;;;21.43;12.47;;;3.30;99.90;;;;;;5039347;28;20440;-65
2023/02/25 03:08:35;;;;;;;13.63;8.83;;;3.40;99.90;;;;;;5043684;28;20840;-63
2023/02/25 03:11:00;;;;;;;3.63;3.33;;;3.30;99.90;;;;;;5041027;28;20426;-63
2023/02/25 03:13:26;;;;;;;12.10;5.57;;;3.30;99.90;;;;;;5045958;28;20475;-64
2023/02/25 03:15:54;;;;;;;15.83;7.87;;;3.30;99.90;;;;;;5025734;28;20207;-64
2023/02/25 03:18:58;;;;;;;14.17;8.60;;;3.30;99.90;;;;;;5015794;28;20535;-65
2023/02/25 03:21:34;;;;;;;13.13;8.30;;;3.30;99.90;;;;;;5035274;28;20449;-64
2023/02/25 03:24:04;;;;;;;8.93;6.03;;;3.30;99.90;;;;;;5041104;28;20409;-64
2023/02/25 03:26:32;;;;;;;8.83;6.00;;;3.30;99.90;;;;;;5038497;28;20799;-65
2023/02/25 03:28:58;;;;;;;6.23;4.33;;;3.30;99.90;;;;;;5041105;28;20432;-65
2023/02/25 03:31:35;;;;;;;12.97;4.33;;;3.20;99.90;;;;;;5037497;28;20403;-64
2023/02/25 03:34:08;;;;;;;6.43;3.47;;;3.20;99.90;;;;;;5027106;28;20894;-64
2023/02/25 03:36:46;;;;;;;7.60;3.90;;;3.20;99.90;;;;;;5024418;28;20903;-65
2023/02/25 03:39:20;;;;;;;9.90;5.30;;;3.20;99.90;;;;;;5017224;28;20452;-65
2023/02/25 03:41:51;;;;;;;9.77;5.20;;;3.20;99.90;;;;;;5022248;28;20434;-65
2023/02/25 03:44:23;;;;;;;7.90;4.60;;;3.20;99.90;;;;;;5022564;28;20430;-65
2023/02/25 03:46:50;;;;;;;5.53;3.47;;;3.20;99.90;;;;;;5023093;28;20454;-65
2023/02/25 03:49:22;;;;;;;11.57;3.60;;;3.10;99.90;;;;;;5046918;22;21899;-72
2023/02/25 03:51:49;;;;;;;6.13;2.73;;;3.20;99.90;;;;;;5031696;28;20414;-68
2023/02/25 03:54:15;;;;;;;8.00;4.03;;;3.20;99.90;;;;;;5030300;28;20517;-68
2023/02/25 03:56:45;;;;;;;9.00;3.93;;;3.20;99.90;;;;;;5042749;28;20883;-68
2023/02/25 03:59:11;;;;;;;21.03;10.40;;;3.10;99.90;;;;;;5040718;28;20469;-67
2023/02/25 04:01:39;;;;;;;51.73;22.87;;;3.10;99.90;;;;;;5035584;28;20413;-68
2023/02/25 04:04:05;;;;;;;57.07;25.40;;;3.10;99.90;;;;;;5030368;28;20486;-67
2023/02/25 04:06:30;;;;;;;50.20;25.40;;;3.10;99.90;;;;;;5044897;28;20417;-67
2023/02/25 04:08:57;;;;;;;73.03;29.67;;;3.20;99.90;;;;;;5041880;28;20558;-67
2023/02/25 04:11:23;;;;;;;38.80;20.80;;;3.10;99.90;;;;;;5046800;28;20597;-68
2023/02/25 04:13:48;;;;;;;36.17;20.50;;;3.10;99.90;;;;;;5040719;28;20411;-67
2023/02/25 04:16:14;;;;;;;35.30;20.93;;;3.10;99.90;;;;;;5039783;28;20422;-67
2023/02/25 04:18:40;;;;;;;37.43;20.20;;;3.10;99.90;;;;;;5030536;28;20168;-67
2023/02/25 04:21:07;;;;;;;31.33;17.57;;;3.20;99.90;;;;;;5038348;28;20703;-68
2023/02/25 04:23:33;;;;;;;26.90;12.63;;;3.10;99.90;;;;;;5033734;28;20423;-67
2023/02/25 04:25:59;;;;;;;19.27;9.50;;;3.10;99.90;;;;;;5040246;28;20430;-67
2023/02/25 04:28:25;;;;;;;18.57;10.13;;;3.10;99.90;;;;;;5028558;28;20414;-68
2023/02/25 04:30:50;;;;;;;17.30;9.57;;;3.10;99.90;;;;;;5034794;28;20195;-67
2023/02/25 04:33:16;;;;;;;9.73;6.37;;;3.10;99.90;;;;;;5031739;28;20516;-67
2023/02/25 04:35:43;;;;;;;11.37;6.00;;;3.00;99.90;;;;;;5023616;28;20654;-67
2023/02/25 04:38:08;;;;;;;11.83;7.60;;;3.10;99.90;;;;;;5020088;28;20233;-67
2023/02/25 04:40:34;;;;;;;19.63;8.60;;;3.00;99.90;;;;;;5025992;28;20474;-69
2023/02/25 04:42:59;;;;;;;17.77;9.17;;;3.00;99.90;;;;;;5041046;28;20198;-66
2023/02/25 04:45:25;;;;;;;20.93;12.10;;;3.00;99.90;;;;;;5042584;28;20198;-70
2023/02/25 04:47:52;;;;;;;38.20;13.60;;;3.00;99.90;;;;;;5036350;28;20171;-67
2023/02/25 04:50:19;;;;;;;19.63;12.33;;;3.00;99.90;;;;;;5039182;28;20213;-67
2023/02/25 04:52:45;;;;;;;15.97;9.27;;;3.00;99.90;;;;;;5037631;28;20418;-67
2023/02/25 04:55:10;;;;;;;7.70;4.87;;;2.90;99.90;;;;;;5038869;28;20440;-67
2023/02/25 04:57:41;;;;;;;6.83;3.90;;;2.90;99.90;;;;;;5021839;28;20465;-68
2023/02/25 05:00:19;;;;;;;6.77;3.07;;;2.80;99.90;;;;;;5042040;28;20207;-67
2023/02/25 05:02:46;;;;;;;4.67;2.97;;;2.80;99.90;;;;;;5040687;28;20475;-67
2023/02/25 05:05:12;;;;;;;3.27;2.40;;;2.80;99.90;;;;;;5038159;28;20455;-68
2023/02/25 05:07:38;;;;;;;1.90;1.80;;;2.80;99.90;;;;;;5043119;28;20734;-67
2023/02/25 05:10:06;;;;;;;3.67;2.83;;;2.80;99.90;;;;;;5039421;28;20458;-70
2023/02/25 05:12:32;;;;;;;1.63;1.53;;;2.80;99.90;;;;;;5030545;28;20179;-67
2023/02/25 05:14:57;;;;;;;2.90;1.50;;;2.80;99.90;;;;;;5039400;28;20419;-68
2023/02/25 05:17:23;;;;;;;1.53;1.20;;;2.70;99.90;;;;;;5032809;28;20176;-67
2023/02/25 05:19:48;;;;;;;2.07;1.17;;;2.70;99.90;;;;;;5037854;28;20229;-67
2023/02/25 05:22:14;;;;;;;7.30;1.47;;;2.70;99.90;;;;;;5030750;28;20536;-69
2023/02/25 05:24:39;;;;;;;3.03;1.60;;;2.70;99.90;;;;;;5043611;28;20191;-67
2023/02/25 05:27:05;;;;;;;1.80;1.70;;;2.70;99.90;;;;;;5041806;28;20577;-67
2023/02/25 05:29:31;;;;;;;1.60;1.50;;;2.80;99.90;;;;;;5029505;28;20290;-67
2023/02/25 05:31:56;;;;;;;0.90;0.90;;;2.80;99.90;;;;;;5033427;28;20191;-68
2023/02/25 05:34:22;;;;;;;2.30;1.20;;;2.70;99.90;;;;;;5041048;28;20175;-69
2023/02/25 05:36:47;;;;;;;1.13;1.03;;;2.70;99.90;;;;;;5033751;28;20176;-68
2023/02/25 05:39:13;;;;;;;1.43;1.33;;;2.70;99.90;;;;;;5038301;28;20210;-67
2023/02/25 05:41:39;;;;;;;1.33;1.20;;;2.70;99.90;;;;;;5035123;28;20274;-69
2023/02/25 05:44:05;;;;;;;1.63;1.53;;;2.70;99.90;;;;;;5038901;28;20242;-68
2023/02/25 05:46:30;;;;;;;1.67;1.27;;;2.70;99.90;;;;;;5037919;28;20430;-67
2023/02/25 05:48:56;;;;;;;1.67;1.40;;;2.80;99.90;;;;;;5044812;28;20703;-67
2023/02/25 05:51:22;;;;;;;1.67;1.30;;;2.80;99.90;;;;;;5044989;28;20214;-68
2023/02/25 05:53:48;;;;;;;1.70;1.20;;;2.80;99.90;;;;;;5048946;28;20187;-68
2023/02/25 05:56:17;;;;;;;1.97;1.30;;;2.70;99.90;;;;;;5032658;28;20496;-68
2023/02/25 05:58:45;;;;;;;1.20;1.10;;;2.70;99.90;;;;;;5049210;28;20417;-67
2023/02/25 06:01:14;;;;;;;1.73;1.63;;;2.60;99.90;;;;;;5043921;28;20461;-68
2023/02/25 06:03:40;;;;;;;3.37;1.60;;;2.60;99.90;;;;;;5030128;28;20425;-70
2023/02/25 06:06:07;;;;;;;1.20;1.10;;;2.60;99.90;;;;;;5035031;28;20430;-67
2023/02/25 06:08:33;;;;;;;2.00;1.30;;;2.50;99.90;;;;;;5035654;28;20398;-68
2023/02/25 06:11:00;;;;;;;1.50;1.40;;;2.50;99.90;;;;;;5045099;28;20497;-67
2023/02/25 06:13:26;;;;;;;1.37;1.37;;;2.50;99.90;;;;;;5049679;28;20967;-68
2023/02/25 06:15:53;;;;;;;1.30;1.20;;;2.50;99.90;;;;;;5039177;28;20410;-67
2023/02/25 06:18:19;;;;;;;1.27;1.17;;;2.40;99.90;;;;;;5052211;28;20416;-68
2023/02/25 06:20:45;;;;;;;6.30;1.63;;;2.40;99.90;;;;;;5045393;28;21049;-70
2023/02/25 06:23:11;;;;;;;1.50;1.40;;;2.40;99.90;;;;;;5041231;28;20464;-67
2023/02/25 06:25:37;;;;;;;1.50;1.40;;;2.40;99.90;;;;;;5041776;28;20555;-68
2023/02/25 06:28:02;;;;;;;1.70;1.37;;;2.40;99.90;;;;;;5045722;28;20180;-69
2023/02/25 06:30:29;;;;;;;1.20;1.10;;;2.40;99.90;;;;;;5043747;28;20205;-68
2023/02/25 06:32:55;;;;;;;4.10;1.23;;;2.30;99.90;;;;;;5040077;28;20700;-67
2023/02/25 06:35:24;;;;;;;1.40;1.23;;;2.30;99.90;;;;;;5052255;28;20416;-67
2023/02/25 06:37:57;;;;;;;2.40;1.10;;;2.30;99.90;;;;;;5040542;28;20434;-68
2023/02/25 06:40:22;;;;;;;2.77;1.90;;;2.30;99.90;;;;;;5038367;28;20492;-69
2023/02/25 06:42:48;;;;;;;1.43;1.33;;;2.30;99.90;;;;;;5040565;28;20929;-68
2023/02/25 06:45:14;;;;;;;1.30;1.20;;;2.30;99.90;;;;;;5038023;28;20176;-68
2023/02/25 06:47:40;;;;;;;3.50;1.50;;;2.30;99.90;;;;;;5043892;28;20410;-69
2023/02/25 06:50:07;;;;;;;1.03;0.93;;;2.30;99.90;;;;;;5045311;28;20450;-68
2023/02/25 06:52:33;;;;;;;0.93;0.90;;;2.30;99.90;;;;;;5042840;28;20180;-68
2023/02/25 06:54:59;;;;;;;1.17;1.17;;;2.20;99.90;;;;;;5036527;28;20537;-69
2023/02/25 06:57:24;;;;;;;3.13;1.83;;;2.20;99.90;;;;;;5040511;28;20865;-68
2023/02/25 06:59:52;;;;;;;1.40;1.30;;;2.20;99.90;;;;;;5042119;28;20328;-68
2023/02/25 07:02:18;;;;;;;2.10;1.40;;;2.10;99.90;;;;;;5045588;28;20417;-68
2023/02/25 07:04:44;;;;;;;1.57;1.33;;;2.10;99.90;;;;;;5022444;28;20505;-68
2023/02/25 07:07:09;;;;;;;1.87;1.40;;;2.20;99.90;;;;;;5042077;28;20900;-68
2023/02/25 07:09:35;;;;;;;1.30;1.20;;;2.20;99.90;;;;;;5042205;28;20199;-70
2023/02/25 07:12:00;;;;;;;1.70;1.20;;;2.20;99.90;;;;;;5042219;28;20183;-67
2023/02/25 07:14:26;;;;;;;5.43;1.23;;;2.20;99.90;;;;;;5031859;28;20179;-68
2023/02/25 07:16:52;;;;;;;1.37;1.27;;;2.20;99.90;;;;;;5040286;28;20172;-68
2023/02/25 07:19:17;;;;;;;1.43;1.27;;;2.20;99.90;;;;;;5029530;28;20231;-68
2023/02/25 07:21:43;;;;;;;1.77;1.67;;;2.20;99.90;;;;;;5038120;28;20203;-68
2023/02/25 07:24:11;;;;;;;1.13;1.03;;;2.30;99.90;;;;;;5039309;28;20546;-67
2023/02/25 07:26:37;;;;;;;1.27;1.10;;;2.30;99.90;;;;;;5038305;28;20799;-67
2023/02/25 07:29:04;;;;;;;1.50;1.37;;;2.30;99.90;;;;;;5043233;28;20449;-70
2023/02/25 07:31:31;;;;;;;2.00;1.40;;;2.30;99.90;;;;;;5044653;28;20439;-67
2023/02/25 07:34:02;;;;;;;2.13;1.20;;;2.40;99.90;;;;;;5041981;28;20411;-68
2023/02/25 07:36:36;;;;;;;1.27;1.13;;;2.40;99.90;;;;;;5033542;28;20433;-68
2023/02/25 07:39:03;;;;;;;3.70;1.20;;;2.40;99.90;;;;;;5028415;28;20545;-69
2023/02/25 07:41:29;;;;;;;1.00;1.00;;;2.40;99.90;;;;;;5024479;28;20521;-67
2023/02/25 07:43:55;;;;;;;4.90;1.60;;;2.40;99.90;;;;;;5039759;28;20504;-67
2023/02/25 07:46:21;;;;;;;1.23;1.13;;;2.50;99.90;;;;;;5039934;28;20221;-67
2023/02/25 07:48:47;;;;;;;1.40;1.30;;;2.40;99.90;;;;;;5045883;28;20420;-67
2023/02/25 07:51:17;;;;;;;1.27;1.17;;;2.50;99.90;;;;;;5044144;28;20452;-69
2023/02/25 07:53:43;;;;;;;1.30;1.20;;;2.40;99.90;;;;;;5044864;28;20413;-68
2023/02/25 07:56:09;;;;;;;2.60;1.47;;;2.60;99.90;;;;;;5040685;28;20427;-71
2023/02/25 07:58:35;;;;;;;2.40;1.10;;;2.60;99.90;;;;;;5043931;28;20425;-68
2023/02/25 08:01:07;;;;;;;3.40;1.50;;;2.50;99.90;;;;;;5030103;28;21030;-68
2023/02/25 08:03:32;;;;;;;2.30;1.17;;;2.60;99.90;;;;;;5039031;28;20422;-68
2023/02/25 08:06:01;;;;;;;0.83;0.83;;;2.60;99.90;;;;;;5042937;28;20425;-68
2023/02/25 08:08:27;;;;;;;2.43;1.80;;;2.70;99.90;;;;;;5045075;28;20178;-70
2023/02/25 08:10:53;;;;;;;1.00;1.00;;;2.60;99.90;;;;;;5043466;28;20444;-69
2023/02/25 08:13:19;;;;;;;1.23;1.13;;;2.60;99.90;;;;;;5044666;28;20413;-67
2023/02/25 08:15:45;;;;;;;0.97;0.97;;;2.60;99.90;;;;;;5036480;28;20179;-67
2023/02/25 08:18:11;;;;;;;1.27;1.17;;;2.60;99.90;;;;;;5043552;28;20410;-68
2023/02/25 08:20:37;;;;;;;1.20;1.00;;;2.60;99.90;;;;;;5038872;28;20461;-69
2023/02/25 08:23:03;;;;;;;1.67;1.30;;;2.60;99.90;;;;;;5042530;28;20467;-67
2023/02/25 08:25:29;;;;;;;0.90;0.90;;;2.50;99.90;;;;;;5019029;28;20207;-68
2023/02/25 08:27:54;;;;;;;1.00;0.90;;;2.50;99.90;;;;;;5042531;28;20457;-67
2023/02/25 08:30:20;;;;;;;1.00;0.90;;;2.50;99.90;;;;;;5042314;28;20437;-67
2023/02/25 08:32:47;;;;;;;2.20;1.20;;;2.60;99.90;;;;;;5035478;28;20808;-68
2023/02/25 08:35:13;;;;;;;1.40;1.17;;;2.60;99.90;;;;;;5037970;28;20171;-67
2023/02/25 08:37:39;;;;;;;1.03;0.93;;;2.70;99.90;;;;;;5032907;28;20444;-66
2023/02/25 08:40:09;;;;;;;0.97;0.90;;;2.60;99.90;;;;;;5022568;28;20461;-68
2023/02/25 08:42:36;;;;;;;2.03;1.17;;;2.70;99.90;;;;;;5026506;28;20446;-68
2023/02/25 08:45:03;;;;;;;1.20;1.03;;;2.70;99.90;;;;;;5043375;28;20418;-68
2023/02/25 08:47:28;;;;;;;1.17;1.07;;;2.60;99.90;;;;;;5031971;28;20933;-68
2023/02/25 08:49:54;;;;;;;0.90;0.90;;;2.60;99.90;;;;;;5043553;28;20468;-68
2023/02/25 08:52:19;;;;;;;1.20;1.00;;;2.60;99.90;;;;;;5039043;28;20180;-67
2023/02/25 08:54:45;;;;;;;1.17;1.07;;;2.60;99.90;;;;;;5021963;28;20211;-67
2023/02/25 08:57:10;;;;;;;1.73;1.63;;;2.70;99.90;;;;;;5038190;28;20653;-66
2023/02/25 08:59:36;;;;;;;0.97;0.97;;;2.60;99.90;;;;;;5037126;28;20203;-67
2023/02/25 09:02:06;;;;;;;1.40;1.17;;;2.60;99.90;;;;;;5035585;28;20732;-66
2023/02/25 09:04:33;;;;;;;1.80;1.20;;;2.60;99.90;;;;;;5041841;28;20541;-70
2023/02/25 09:07:00;;;;;;;1.10;1.00;;;2.70;99.90;;;;;;5039385;28;20438;-68
2023/02/25 09:09:26;;;;;;;1.17;1.00;;;2.60;99.90;;;;;;5045662;28;20436;-66
2023/02/25 09:11:52;;;;;;;1.20;1.00;;;2.60;99.90;;;;;;5040505;28;20414;-67
2023/02/25 09:14:18;;;;;;;1.20;1.10;;;2.70;99.90;;;;;;5043397;28;20401;-68
2023/02/25 09:16:44;;;;;;;0.93;0.93;;;2.70;99.90;;;;;;5040947;28;20410;-67
2023/02/25 09:19:11;;;;;;;1.50;1.27;;;2.60;99.90;;;;;;5041862;28;20772;-68
2023/02/25 09:21:39;;;;;;;3.30;1.17;;;2.60;99.90;;;;;;5039873;28;20645;-67
2023/02/25 09:24:05;;;;;;;1.20;1.10;;;2.80;99.90;;;;;;5033800;28;20785;-67
2023/02/25 09:26:31;;;;;;;2.23;1.00;;;2.70;99.90;;;;;;5028884;28;20441;-67
2023/02/25 09:29:00;;;;;;;1.10;1.00;;;2.60;99.90;;;;;;5035736;28;20897;-68
2023/02/25 09:31:26;;;;;;;0.93;0.90;;;2.70;99.90;;;;;;5022339;28;20188;-68
2023/02/25 09:33:51;;;;;;;0.80;0.80;;;2.80;99.90;;;;;;5020067;28;20435;-68
2023/02/25 09:36:19;;;;;;;1.10;1.00;;;2.90;99.90;;;;;;5031552;28;20692;-67
2023/02/25 09:38:47;;;;;;;2.17;1.50;;;3.00;99.90;;;;;;5039933;28;20721;-68
2023/02/25 09:41:24;;;;;;;1.83;0.77;;;3.00;99.90;;;;;;5041560;28;20491;-68
2023/02/25 09:44:15;;;;;;;2.27;1.10;;;3.10;99.90;;;;;;5040261;28;20525;-69
2023/02/25 09:46:55;;;;;;;1.00;1.00;;;3.20;99.90;;;;;;5015625;28;20743;-68
2023/02/25 09:49:33;;;;;;;1.10;1.00;;;3.30;99.90;;;;;;5027180;28;20869;-68
2023/02/25 09:52:10;;;;;;;1.27;0.80;;;3.30;99.90;;;;;;5049825;22;20493;-69
2023/02/25 09:54:44;;;;;;;0.80;0.80;;;3.20;99.90;;;;;;5019184;28;20513;-69
2023/02/25 09:57:17;;;;;;;1.13;1.00;;;3.30;99.90;;;;;;5019021;28;20894;-70
2023/02/25 09:59:47;;;;;;;0.70;0.70;;;3.40;99.90;;;;;;5020457;28;20645;-70
2023/02/25 10:02:19;;;;;;;1.00;0.90;;;3.50;99.90;;;;;;5022083;28;20824;-70
2023/02/25 10:05:04;;;;;;;1.13;1.00;;;3.40;99.90;;;;;;5015314;28;20779;-70
2023/02/25 10:07:35;;;;;;;0.83;0.80;;;3.50;99.90;;;;;;5024818;28;20532;-70
2023/02/25 10:10:05;;;;;;;0.77;0.77;;;3.60;99.90;;;;;;5006898;28;20426;-69
2023/02/25 10:12:56;;;;;;;0.70;0.70;;;3.70;99.90;;;;;;5025029;28;20849;-69
2023/02/25 10:15:42;;;;;;;1.53;1.00;;;3.70;99.90;;;;;;5020488;28;20414;-70
2023/02/25 10:18:33;;;;;;;1.47;0.90;;;3.70;99.90;;;;;;5025179;28;20478;-69
2023/02/25 10:21:19;;;;;;;0.83;0.83;;;3.60;99.90;;;;;;5007920;28;20467;-69
2023/02/25 10:24:12;;;;;;;1.43;0.90;;;3.60;99.90;;;;;;5014391;28;20454;-69
2023/02/25 10:26:43;;;;;;;0.83;0.83;;;3.50;99.90;;;;;;5021203;28;20490;-69
2023/02/25 10:29:27;;;;;;;1.07;0.70;;;3.60;99.90;;;;;;5020009;28;20411;-69
2023/02/25 10:31:58;;;;;;;1.10;0.93;;;3.70;99.90;;;;;;5025206;28;20414;-70
2023/02/25 10:34:28;;;;;;;1.57;1.13;;;3.70;99.90;;;;;;5025745;28;20399;-69
2023/02/25 10:36:59;;;;;;;1.33;0.93;;;3.60;99.90;;;;;;5012813;28;20935;-70
2023/02/25 10:39:26;;;;;;;0.80;0.80;;;3.90;99.90;;;;;;5024762;28;20486;-69
2023/02/25 10:41:52;;;;;;;0.73;0.73;;;4.00;99.90;;;;;;5026893;28;20422;-69
2023/02/25 10:44:17;;;;;;;0.83;0.80;;;3.70;99.90;;;;;;5022832;28;20520;-69
2023/02/25 10:47:00;;;;;;;0.80;0.80;;;3.60;99.90;;;;;;5006513;28;20284;-70
2023/02/25 10:49:29;;;;;;;0.70;0.70;;;3.70;99.90;;;;;;5021165;28;20184;-70
2023/02/25 10:52:16;;;;;;;1.03;0.90;;;3.80;99.90;;;;;;5033723;28;20774;-70
2023/02/25 10:54:48;;;;;;;1.67;0.97;;;3.80;99.90;;;;;;5026362;28;20428;-70
2023/02/25 10:57:17;;;;;;;0.90;0.90;;;3.90;99.90;;;;;;5027115;28;20756;-70
2023/02/25 10:59:44;;;;;;;0.90;0.80;;;4.00;99.90;;;;;;5029293;28;20454;-70
2023/02/25 11:02:24;;;;;;;0.90;0.90;;;4.10;99.90;;;;;;5025206;28;20893;-70
2023/02/25 11:04:51;;;;;;;1.00;0.90;;;4.00;99.90;;;;;;5007411;28;20418;-70
2023/02/25 11:07:34;;;;;;;0.80;0.80;;;4.30;99.90;;;;;;5030424;28;20489;-70
2023/02/25 11:10:19;;;;;;;0.87;0.87;;;4.30;99.90;;;;;;5031853;28;20820;-70
2023/02/25 11:12:46;;;;;;;0.70;0.70;;;4.40;99.90;;;;;;5009404;28;20613;-70
2023/02/25 11:15:25;;;;;;;0.90;0.80;;;4.30;99.90;;;;;;5018580;28;20466;-69
2023/02/25 11:17:53;;;;;;;0.87;0.83;;;4.20;99.90;;;;;;5023461;28;20434;-71
2023/02/25 11:20:26;;;;;;;0.83;0.83;;;4.20;99.90;;;;;;5025620;28;20445;-70
2023/02/25 11:22:55;;;;;;;1.00;0.90;;;4.10;99.90;;;;;;5029407;28;20426;-71
2023/02/25 11:25:38;;;;;;;0.80;0.80;;;4.20;99.90;;;;;;5031708;28;20403;-70
2023/02/25 11:28:06;;;;;;;1.10;0.90;;;3.90;99.90;;;;;;5001740;28;20418;-70
2023/02/25 11:30:39;;;;;;;0.93;0.83;;;3.90;99.90;;;;;;5016891;28;20948;-69
2023/02/25 11:33:22;;;;;;;1.20;0.80;;;3.50;99.90;;;;;;5026025;28;20926;-71
2023/02/25 11:35:58;;;;;;;1.60;1.00;;;2.80;99.90;;;;;;5018147;28;20839;-71
2023/02/25 11:38:31;;;;;;;0.80;0.80;;;2.70;99.90;;;;;;5018924;28;20449;-70
2023/02/25 11:40:56;;;;;;;0.90;0.80;;;2.90;99.90;;;;;;5008636;28;20478;-70
2023/02/25 11:43:32;;;;;;;1.10;0.90;;;3.10;99.90;;;;;;5007592;28;20423;-70
2023/02/25 11:46:08;;;;;;;0.70;0.70;;;3.20;99.90;;;;;;5027299;28;20300;-70
2023/02/25 11:48:53;;;;;;;0.70;0.70;;;3.20;99.90;;;;;;5008319;28;20434;-70
2023/02/25 11:51:21;;;;;;;0.90;0.90;;;3.50;99.90;;;;;;5002767;28;20463;-70
2023/02/25 11:54:19;;;;;;;0.90;0.90;;;3.70;99.90;;;;;;5019045;28;20513;-70
2023/02/25 11:56:50;;;;;;;0.70;0.70;;;3.80;99.90;;;;;;5020330;28;20454;-70
2023/02/25 11:59:36;;;;;;;0.87;0.87;;;3.90;99.90;;;;;;4999384;28;20511;-70
2023/02/25 12:02:36;;;;;;;0.70;0.70;;;4.00;99.90;;;;;;5024268;28;20426;-69
2023/02/25 12:05:26;;;;;;;1.40;1.30;;;4.00;99.90;;;;;;5031958;28;20418;-66
2023/02/25 12:08:06;;;;;;;0.77;0.77;;;4.00;99.90;;;;;;5030822;28;20402;-71
2023/02/25 12:11:00;;;;;;;1.37;0.80;;;3.60;99.90;;;;;;5026915;28;20411;-70
2023/02/25 12:13:28;;;;;;;0.70;0.70;;;3.10;99.90;;;;;;5013913;28;20775;-70
2023/02/25 12:16:18;;;;;;;0.80;0.80;;;3.20;99.90;;;;;;5007987;28;20441;-69
2023/02/25 12:19:04;;;;;;;0.73;0.73;;;3.30;99.90;;;;;;5002642;28;20962;-69
2023/02/25 12:21:41;;;;;;;1.57;0.80;;;3.40;99.90;;;;;;5016174;28;20462;-72
2023/02/25 12:24:28;;;;;;;0.90;0.90;;;3.30;99.90;;;;;;5014177;28;20481;-69
2023/02/25 12:27:19;;;;;;;1.10;1.00;;;3.60;99.90;;;;;;5023369;28;20407;-70
2023/02/25 12:29:54;;;;;;;1.80;0.70;;;3.60;99.90;;;;;;5027020;28;20760;-70
2023/02/25 12:32:22;;;;;;;0.90;0.90;;;3.40;99.90;;;;;;5018260;28;20472;-69
2023/02/25 12:35:26;;;;;;;1.00;0.90;;;3.70;99.90;;;;;;5024569;28;20411;-69
2023/02/25 12:38:34;;;;;;;0.87;0.83;;;3.70;99.90;;;;;;5005104;28;20439;-70
2023/02/25 12:41:34;;;;;;;1.00;0.90;;;3.30;99.90;;;;;;5009335;28;20471;-70
2023/02/25 12:44:32;;;;;;;1.30;1.20;;;3.00;99.90;;;;;;5009433;28;20431;-71
2023/02/25 12:47:26;;;;;;;1.10;0.83;;;2.80;99.90;;;;;;5012828;28;20431;-70
2023/02/25 12:50:19;;;;;;;1.10;1.07;;;2.80;99.90;;;;;;5012804;28;20477;-70
2023/02/25 12:53:03;;;;;;;0.80;0.80;;;3.00;99.90;;;;;;4994761;28;20469;-70
2023/02/25 12:55:38;;;;;;;1.43;0.70;;;3.10;99.90;;;;;;5019574;28;20577;-71
2023/02/25 12:58:18;;;;;;;3.20;1.00;;;3.10;99.90;;;;;;5025812;28;20444;-70
2023/02/25 13:01:22;;;;;;;1.27;1.17;;;3.30;99.90;;;;;;5020798;28;20458;-71
2023/02/25 13:04:13;;;;;;;0.80;0.80;;;3.50;99.90;;;;;;5031976;28;20477;-70
2023/02/25 13:06:41;;;;;;;2.00;1.00;;;3.50;99.90;;;;;;5013965;28;20411;-70
2023/02/25 13:09:07;;;;;;;1.27;1.10;;;3.30;99.90;;;;;;5011307;28;20463;-69
2023/02/25 13:11:51;;;;;;;1.90;1.00;;;2.70;99.90;;;;;;5006573;28;20997;-70
2023/02/25 13:15:04;;;;;;;0.80;0.80;;;2.40;99.90;;;;;;5007903;28;20560;-70
2023/02/25 13:18:07;;;;;;;1.10;1.10;;;2.30;99.90;;;;;;4988310;28;20985;-73
2023/02/25 13:21:08;;;;;;;0.90;0.90;;;2.20;99.90;;;;;;5019788;28;20452;-72